Time;durP1;ratioP1;P1;durP2;ratioP2;P2;SDS_P1;SDS_P2;PMS_P1;PMS_P2;Temp;Humidity;BMP_temperature;BMP_pressure;BME280_temperature;BME280_humidity;BME280_pressure;Samples;Min_cycle;Max_cycle;Signal;HPM_P1;HPM_P2
2022/03/26 00:00:50;;;;;;;86.57;53.92;;;5.70;99.90;;;;;;5018478;28;89507;-35
2022/03/26 00:03:16;;;;;;;79.47;58.40;;;5.50;99.90;;;;;;5018894;28;89547;-38
2022/03/26 00:05:43;;;;;;;89.80;61.08;;;5.50;99.90;;;;;;5018208;28;89598;-34
2022/03/26 00:08:09;;;;;;;85.30;57.70;;;5.40;99.90;;;;;;5018080;28;90109;-34
2022/03/26 00:10:36;;;;;;;84.30;53.28;;;5.50;99.90;;;;;;5018718;28;90347;-38
2022/03/26 00:13:03;;;;;;;80.80;56.38;;;5.50;99.90;;;;;;5018932;28;90565;-34
2022/03/26 00:15:28;;;;;;;82.45;54.55;;;5.50;99.90;;;;;;5018779;28;89088;-33
2022/03/26 00:17:55;;;;;;;79.85;55.90;;;5.50;99.90;;;;;;5035346;22;90339;-36
2022/03/26 00:20:21;;;;;;;80.78;55.30;;;5.40;99.90;;;;;;4977314;28;90474;-35
2022/03/26 00:22:47;;;;;;;92.03;57.00;;;5.40;99.90;;;;;;4978373;28;90352;-36
2022/03/26 00:25:15;;;;;;;84.00;57.67;;;5.40;99.90;;;;;;4982303;28;87660;-34
2022/03/26 00:27:41;;;;;;;98.73;64.07;;;5.40;99.90;;;;;;4981475;28;90226;-36
2022/03/26 00:30:08;;;;;;;86.53;59.28;;;5.40;99.90;;;;;;4981066;28;89611;-34
2022/03/26 00:32:34;;;;;;;97.68;62.67;;;5.40;99.90;;;;;;4981991;28;89792;-33
2022/03/26 00:35:00;;;;;;;99.35;66.28;;;5.40;99.90;;;;;;4981664;28;89682;-34
2022/03/26 00:37:26;;;;;;;94.47;64.57;;;5.30;99.90;;;;;;4981609;28;90322;-31
2022/03/26 00:39:52;;;;;;;96.90;67.13;;;5.30;99.90;;;;;;4981557;28;89570;-33
2022/03/26 00:42:18;;;;;;;91.85;66.50;;;5.30;99.90;;;;;;4981084;28;89532;-35
2022/03/26 00:44:44;;;;;;;94.82;62.85;;;5.30;99.90;;;;;;4980418;28;89492;-34
2022/03/26 00:47:10;;;;;;;94.15;64.30;;;5.30;99.90;;;;;;4981429;28;90113;-34
2022/03/26 00:49:36;;;;;;;103.03;65.68;;;5.20;99.90;;;;;;4980995;28;90043;-34
2022/03/26 00:52:02;;;;;;;99.70;65.97;;;5.20;99.90;;;;;;4981570;28;89598;-36
2022/03/26 00:54:28;;;;;;;91.40;65.28;;;5.10;99.90;;;;;;4981160;28;88594;-34
2022/03/26 00:56:53;;;;;;;102.72;64.97;;;5.10;99.90;;;;;;4981336;28;89538;-36
2022/03/26 00:59:19;;;;;;;93.55;65.05;;;5.10;99.90;;;;;;4981346;28;91773;-34
2022/03/26 01:01:45;;;;;;;104.13;68.45;;;5.00;99.90;;;;;;4981041;28;89398;-35
2022/03/26 01:04:12;;;;;;;98.63;68.90;;;5.10;99.90;;;;;;4981500;28;89050;-35
2022/03/26 01:06:37;;;;;;;100.45;66.57;;;5.10;99.90;;;;;;4980671;28;90187;-36
2022/03/26 01:09:03;;;;;;;113.00;69.88;;;5.10;99.90;;;;;;4962715;28;90898;-35
2022/03/26 01:11:28;;;;;;;98.20;67.63;;;5.10;99.90;;;;;;4981537;28;91210;-35
2022/03/26 01:13:56;;;;;;;103.57;66.28;;;5.10;99.90;;;;;;4980577;28;87900;-34
2022/03/26 01:16:23;;;;;;;109.40;70.93;;;5.10;99.90;;;;;;4980826;28;90378;-39
2022/03/26 01:18:49;;;;;;;111.20;75.75;;;5.10;99.90;;;;;;4980311;28;89466;-33
2022/03/26 01:21:15;;;;;;;118.35;78.15;;;5.10;99.90;;;;;;4980620;28;89327;-36
2022/03/26 01:23:40;;;;;;;124.07;84.00;;;5.10;99.90;;;;;;4980876;28;90510;-34
2022/03/26 01:26:06;;;;;;;124.18;84.85;;;5.10;99.90;;;;;;4980919;28;95241;-33
2022/03/26 01:28:32;;;;;;;117.68;79.15;;;5.10;99.90;;;;;;4980453;28;90096;-33
2022/03/26 01:31:00;;;;;;;128.40;83.32;;;5.20;99.90;;;;;;4980527;28;88350;-36
2022/03/26 01:33:25;;;;;;;125.47;82.43;;;5.20;99.90;;;;;;4980079;28;89122;-34
2022/03/26 01:35:51;;;;;;;120.82;83.10;;;5.10;99.90;;;;;;4980559;28;90240;-34
2022/03/26 01:38:16;;;;;;;129.93;88.75;;;5.20;99.90;;;;;;4980881;28;89715;-32
2022/03/26 01:40:42;;;;;;;130.00;90.00;;;5.20;99.90;;;;;;4979552;28;89581;-33
2022/03/26 01:43:08;;;;;;;139.68;86.70;;;5.20;99.90;;;;;;4981170;28;89293;-36
2022/03/26 01:45:34;;;;;;;132.32;88.00;;;5.20;99.90;;;;;;4980233;28;90301;-34
2022/03/26 01:48:00;;;;;;;124.07;82.85;;;5.20;99.90;;;;;;4980633;28;89885;-37
2022/03/26 01:50:27;;;;;;;128.35;90.15;;;5.10;99.90;;;;;;4980380;28;91596;-34
2022/03/26 01:52:53;;;;;;;141.25;94.80;;;5.10;99.90;;;;;;4979767;28;89669;-36
2022/03/26 01:55:20;;;;;;;131.60;87.40;;;5.10;99.90;;;;;;4980036;28;90608;-38
2022/03/26 01:57:46;;;;;;;136.15;85.32;;;5.10;99.90;;;;;;4979637;28;91729;-36
2022/03/26 02:00:12;;;;;;;141.55;92.60;;;5.10;99.90;;;;;;4980063;28;89348;-33
2022/03/26 02:02:43;;;;;;;155.80;94.10;;;5.10;99.90;;;;;;4980310;28;89826;-34
2022/03/26 02:05:17;;;;;;;145.45;94.80;;;5.10;99.90;;;;;;4961664;28;90002;-38
2022/03/26 02:07:45;;;;;;;141.50;93.43;;;5.20;99.90;;;;;;4979521;28;90240;-34
2022/03/26 02:10:12;;;;;;;138.65;90.63;;;5.10;99.90;;;;;;4979961;28;89509;-35
2022/03/26 02:12:38;;;;;;;155.00;94.90;;;5.10;99.90;;;;;;4980628;28;88619;-39
2022/03/26 02:15:06;;;;;;;152.73;95.65;;;5.00;99.90;;;;;;4980281;28;90220;-32
2022/03/26 02:17:35;;;;;;;151.43;96.05;;;5.00;99.90;;;;;;4979707;28;89554;-33
2022/03/26 02:20:11;;;;;;;145.60;93.70;;;5.00;99.90;;;;;;4978889;28;90432;-35
2022/03/26 02:22:37;;;;;;;142.20;89.85;;;5.00;99.90;;;;;;4979457;28;89679;-38
2022/03/26 02:25:05;;;;;;;124.18;87.40;;;5.00;99.90;;;;;;4980331;28;90050;-33
2022/03/26 02:27:32;;;;;;;136.30;89.97;;;5.00;99.90;;;;;;4979575;28;90397;-34
2022/03/26 02:29:58;;;;;;;142.90;93.15;;;5.00;99.90;;;;;;4979063;28;90112;-34
2022/03/26 02:32:27;;;;;;;149.70;94.82;;;5.00;99.90;;;;;;4980629;28;89251;-35
2022/03/26 02:34:53;;;;;;;146.02;96.22;;;5.00;99.90;;;;;;4980250;28;90516;-34
2022/03/26 02:37:19;;;;;;;152.60;98.18;;;4.90;99.90;;;;;;4979568;28;89803;-35
2022/03/26 02:39:45;;;;;;;148.25;93.70;;;4.80;99.90;;;;;;4979760;28;89476;-35
2022/03/26 02:42:12;;;;;;;152.27;96.50;;;4.80;99.90;;;;;;4980077;28;89706;-33
2022/03/26 02:44:38;;;;;;;160.48;101.78;;;4.80;99.90;;;;;;4978905;28;90252;-34
2022/03/26 02:47:04;;;;;;;179.27;107.30;;;4.70;99.90;;;;;;4978212;28;90643;-36
2022/03/26 02:49:29;;;;;;;171.15;106.78;;;4.70;99.90;;;;;;4979119;28;92428;-35
2022/03/26 02:51:55;;;;;;;161.93;104.40;;;4.70;99.90;;;;;;4978093;28;89346;-34
2022/03/26 02:54:21;;;;;;;172.30;109.25;;;4.70;99.90;;;;;;4978472;28;90248;-37
2022/03/26 02:56:48;;;;;;;162.52;103.05;;;4.70;99.90;;;;;;4978427;28;89635;-36
2022/03/26 02:59:14;;;;;;;155.15;100.57;;;4.70;99.90;;;;;;4979288;28;89715;-37
2022/03/26 03:01:39;;;;;;;162.85;103.00;;;4.70;99.90;;;;;;4979075;28;90175;-37
2022/03/26 03:04:05;;;;;;;170.25;106.28;;;4.60;99.90;;;;;;4978789;28;88960;-33
2022/03/26 03:06:31;;;;;;;165.20;105.10;;;4.50;99.90;;;;;;4979348;28;90058;-38
2022/03/26 03:08:57;;;;;;;155.75;101.30;;;4.50;99.90;;;;;;4977754;28;89276;-36
2022/03/26 03:11:23;;;;;;;163.18;105.45;;;4.50;99.90;;;;;;4977847;28;89006;-33
2022/03/26 03:13:49;;;;;;;180.95;109.18;;;4.50;99.90;;;;;;4978563;28;90274;-32
2022/03/26 03:16:15;;;;;;;163.85;101.43;;;4.40;99.90;;;;;;4978315;28;89584;-35
2022/03/26 03:18:40;;;;;;;162.68;99.43;;;4.40;99.90;;;;;;4978347;28;89744;-37
2022/03/26 03:21:06;;;;;;;162.68;96.75;;;4.40;99.90;;;;;;4977264;28;88944;-37
2022/03/26 03:23:32;;;;;;;159.25;98.57;;;4.30;99.90;;;;;;4978805;28;90756;-34
2022/03/26 03:25:57;;;;;;;143.27;90.00;;;4.30;99.90;;;;;;4978451;28;90284;-37
2022/03/26 03:28:23;;;;;;;143.00;90.95;;;4.30;99.90;;;;;;4979000;28;89680;-33
2022/03/26 03:30:49;;;;;;;146.65;91.28;;;4.10;99.90;;;;;;4979196;28;88730;-33
2022/03/26 03:33:15;;;;;;;136.30;87.68;;;4.10;99.90;;;;;;4978411;28;90418;-35
2022/03/26 03:35:41;;;;;;;149.48;91.75;;;4.00;99.90;;;;;;4977836;28;89758;-34
2022/03/26 03:38:07;;;;;;;161.35;96.80;;;4.00;99.90;;;;;;4978838;28;90291;-35
2022/03/26 03:40:32;;;;;;;160.20;98.63;;;4.00;99.90;;;;;;4979012;28;89420;-35
2022/03/26 03:42:58;;;;;;;154.32;94.97;;;4.00;99.90;;;;;;4978468;28;90121;-35
2022/03/26 03:45:24;;;;;;;153.68;96.65;;;4.00;99.90;;;;;;4978328;28;89844;-37
2022/03/26 03:47:50;;;;;;;151.32;92.68;;;3.90;99.90;;;;;;4978494;28;90020;-35
2022/03/26 03:50:16;;;;;;;154.63;95.53;;;3.90;99.90;;;;;;4978855;28;89038;-34
2022/03/26 03:52:42;;;;;;;161.60;97.80;;;3.90;99.90;;;;;;4978360;28;90326;-35
2022/03/26 03:55:07;;;;;;;160.07;99.50;;;3.90;99.90;;;;;;4978806;28;89686;-37
2022/03/26 03:57:33;;;;;;;148.07;91.15;;;3.80;99.90;;;;;;4978323;28;90037;-38
2022/03/26 03:59:59;;;;;;;149.27;92.93;;;3.80;99.90;;;;;;4982334;28;90167;-34
2022/03/26 04:02:25;;;;;;;141.55;91.70;;;3.80;99.90;;;;;;4981808;28;90839;-36
2022/03/26 04:04:51;;;;;;;143.30;87.95;;;3.80;99.90;;;;;;4981557;28;89717;-36
2022/03/26 04:07:16;;;;;;;140.73;91.25;;;3.70;99.90;;;;;;4982351;28;92057;-33
2022/03/26 04:09:42;;;;;;;145.65;89.75;;;3.80;99.90;;;;;;4981285;28;88803;-37
2022/03/26 04:12:08;;;;;;;151.13;93.13;;;3.70;99.90;;;;;;4982488;28;89060;-34
2022/03/26 04:14:35;;;;;;;148.95;91.32;;;3.70;99.90;;;;;;4981982;28;90953;-34
2022/03/26 04:17:01;;;;;;;147.02;93.00;;;3.70;99.90;;;;;;4981719;28;89482;-35
2022/03/26 04:19:27;;;;;;;136.20;88.43;;;3.70;99.90;;;;;;4981825;28;89315;-35
2022/03/26 04:21:54;;;;;;;144.13;92.70;;;3.70;99.90;;;;;;4981008;28;90036;-36
2022/03/26 04:24:20;;;;;;;155.52;90.40;;;3.70;99.90;;;;;;4980580;28;90645;-34
2022/03/26 04:26:46;;;;;;;149.50;91.72;;;3.70;99.90;;;;;;4981651;28;91112;-35
2022/03/26 04:29:11;;;;;;;146.18;91.25;;;3.70;99.90;;;;;;4981693;28;87680;-37
2022/03/26 04:31:37;;;;;;;138.40;90.40;;;3.70;99.90;;;;;;4981539;28;90385;-38
2022/03/26 04:34:03;;;;;;;137.50;91.72;;;3.70;99.90;;;;;;4981540;28;89917;-32
2022/03/26 04:36:30;;;;;;;148.30;91.32;;;3.70;99.90;;;;;;4963355;28;89992;-37
2022/03/26 04:38:57;;;;;;;135.07;87.50;;;3.70;99.90;;;;;;4981996;28;89940;-36
2022/03/26 04:41:22;;;;;;;133.07;86.25;;;3.60;99.90;;;;;;4982241;28;90451;-33
2022/03/26 04:43:49;;;;;;;145.77;85.88;;;3.50;99.90;;;;;;4981003;28;89822;-32
2022/03/26 04:46:15;;;;;;;136.70;88.35;;;3.50;99.90;;;;;;4982027;28;90583;-34
2022/03/26 04:48:41;;;;;;;128.95;86.18;;;3.50;99.90;;;;;;4980690;28;89887;-37
2022/03/26 04:51:07;;;;;;;134.95;84.85;;;3.50;99.90;;;;;;4981554;28;90159;-36
2022/03/26 04:53:32;;;;;;;142.48;84.22;;;3.40;99.90;;;;;;4981480;28;89816;-33
2022/03/26 04:55:58;;;;;;;134.93;82.03;;;3.40;99.90;;;;;;4979973;28;89690;-32
2022/03/26 04:58:23;;;;;;;114.38;76.05;;;3.30;99.90;;;;;;4981212;28;87934;-36
2022/03/26 05:00:49;;;;;;;111.88;73.43;;;3.40;99.90;;;;;;4980939;28;90454;-36
2022/03/26 05:03:15;;;;;;;111.00;74.18;;;3.40;99.90;;;;;;4981613;28;89542;-34
2022/03/26 05:05:40;;;;;;;119.72;72.57;;;3.00;99.90;;;;;;4980890;28;89557;-35
2022/03/26 05:08:06;;;;;;;107.90;75.85;;;2.90;99.90;;;;;;4981556;28;90038;-33
2022/03/26 05:10:32;;;;;;;120.50;77.63;;;2.90;99.90;;;;;;4981240;28;90677;-33
2022/03/26 05:12:58;;;;;;;125.30;80.97;;;2.90;99.90;;;;;;4979443;28;91262;-35
2022/03/26 05:15:27;;;;;;;137.52;84.57;;;2.90;99.90;;;;;;4981658;28;90370;-36
2022/03/26 05:17:53;;;;;;;128.73;83.28;;;2.90;99.90;;;;;;4980552;28;89252;-37
2022/03/26 05:20:19;;;;;;;148.07;90.95;;;3.00;99.90;;;;;;4981223;28;89257;-34
2022/03/26 05:22:47;;;;;;;150.57;91.70;;;3.10;99.90;;;;;;4980594;28;89678;-37
2022/03/26 05:25:13;;;;;;;145.18;92.55;;;3.10;99.90;;;;;;4981019;28;89624;-33
2022/03/26 05:27:47;;;;;;;141.52;92.15;;;3.10;99.90;;;;;;4980831;28;87956;-34
2022/03/26 05:30:13;;;;;;;146.73;91.38;;;3.20;99.90;;;;;;4981381;28;90351;-32
2022/03/26 05:32:39;;;;;;;142.40;91.20;;;3.20;99.90;;;;;;4980156;28;89743;-34
2022/03/26 05:35:11;;;;;;;149.27;89.50;;;3.30;99.90;;;;;;4980474;28;90142;-34
2022/03/26 05:37:38;;;;;;;144.80;94.60;;;3.30;99.90;;;;;;4979974;28;90432;-33
2022/03/26 05:40:04;;;;;;;142.55;90.47;;;3.30;99.90;;;;;;4980353;28;90098;-34
2022/03/26 05:42:30;;;;;;;134.85;84.70;;;3.40;99.90;;;;;;4980556;28;90262;-35
2022/03/26 05:44:56;;;;;;;124.82;83.22;;;3.40;99.90;;;;;;4979489;28;90027;-34
2022/03/26 05:47:23;;;;;;;121.90;78.97;;;3.50;99.90;;;;;;4980173;28;87661;-37
2022/03/26 05:49:49;;;;;;;120.05;76.82;;;3.40;99.90;;;;;;4980482;28;90106;-35
2022/03/26 05:52:15;;;;;;;121.75;79.85;;;3.30;99.90;;;;;;4980432;28;89869;-38
2022/03/26 05:54:41;;;;;;;125.03;77.40;;;3.30;99.90;;;;;;4981023;28;89627;-37
2022/03/26 05:57:06;;;;;;;126.85;82.90;;;3.30;99.90;;;;;;4980779;28;89829;-34
2022/03/26 05:59:32;;;;;;;121.43;79.22;;;3.30;99.90;;;;;;4980046;28;90474;-34
2022/03/26 06:01:58;;;;;;;132.32;79.20;;;3.40;99.90;;;;;;4979748;28;90985;-34
2022/03/26 06:04:24;;;;;;;131.93;84.18;;;3.50;99.90;;;;;;4980527;28;90216;-34
2022/03/26 06:06:50;;;;;;;127.80;80.90;;;3.50;99.90;;;;;;4980148;28;89323;-37
2022/03/26 06:09:16;;;;;;;150.65;90.50;;;3.60;99.90;;;;;;4979803;28;90654;-35
2022/03/26 06:11:41;;;;;;;147.18;90.75;;;3.70;99.90;;;;;;4979030;28;90553;-35
2022/03/26 06:14:07;;;;;;;150.75;91.07;;;3.70;99.90;;;;;;4980168;28;89859;-33
2022/03/26 06:16:33;;;;;;;146.15;95.50;;;3.90;99.90;;;;;;4979839;28;88526;-33
2022/03/26 06:18:59;;;;;;;140.85;91.00;;;4.00;99.90;;;;;;4980594;28;88940;-35
2022/03/26 06:21:24;;;;;;;146.93;93.72;;;4.00;99.90;;;;;;4978145;28;89491;-34
2022/03/26 06:23:50;;;;;;;146.35;91.32;;;4.10;99.90;;;;;;4979479;28;89861;-38
2022/03/26 06:26:15;;;;;;;130.90;85.95;;;4.20;99.90;;;;;;4977248;28;89775;-35
2022/03/26 06:28:41;;;;;;;130.73;83.80;;;4.20;99.90;;;;;;4991118;28;90278;-37
2022/03/26 06:31:08;;;;;;;126.63;84.13;;;4.10;99.90;;;;;;4997923;28;89376;-33
2022/03/26 06:33:35;;;;;;;133.98;87.50;;;4.10;99.90;;;;;;4997455;28;89854;-36
2022/03/26 06:36:01;;;;;;;136.07;83.75;;;4.10;99.90;;;;;;4997634;28;90222;-37
2022/03/26 06:38:31;;;;;;;128.52;85.15;;;4.10;99.90;;;;;;4997437;28;90230;-37
2022/03/26 06:40:58;;;;;;;142.95;96.90;;;4.20;99.90;;;;;;4997486;28;90199;-35
2022/03/26 06:43:23;;;;;;;155.10;95.88;;;4.40;99.90;;;;;;4997293;28;91228;-34
2022/03/26 06:45:49;;;;;;;147.15;95.18;;;4.60;99.90;;;;;;4996990;28;89812;-37
2022/03/26 06:48:14;;;;;;;165.07;105.68;;;4.80;99.90;;;;;;4979624;28;90866;-33
2022/03/26 06:50:40;;;;;;;166.48;105.28;;;5.10;99.90;;;;;;4995106;28;90530;-37
2022/03/26 06:53:06;;;;;;;172.13;101.20;;;5.70;99.90;;;;;;4996612;28;90222;-33
2022/03/26 06:55:31;;;;;;;164.10;100.53;;;6.10;99.90;;;;;;4996116;28;88186;-35
2022/03/26 06:57:57;;;;;;;170.00;103.68;;;6.10;99.90;;;;;;4997017;28;90406;-37
2022/03/26 07:00:23;;;;;;;159.15;99.13;;;6.20;99.90;;;;;;4996357;28;90286;-34
2022/03/26 07:02:48;;;;;;;170.57;97.35;;;6.40;99.90;;;;;;4997130;28;89954;-33
2022/03/26 07:05:15;;;;;;;146.25;92.03;;;6.60;99.90;;;;;;4997670;28;88204;-33
2022/03/26 07:07:41;;;;;;;156.73;94.43;;;6.80;99.90;;;;;;4996778;28;89899;-35
2022/03/26 07:10:08;;;;;;;150.18;94.07;;;7.10;99.90;;;;;;4997353;28;90707;-34
2022/03/26 07:12:34;;;;;;;143.48;91.75;;;7.40;99.90;;;;;;4997046;28;89270;-35
2022/03/26 07:15:00;;;;;;;159.50;95.88;;;7.70;99.90;;;;;;4996411;28;91438;-33
2022/03/26 07:17:25;;;;;;;143.27;87.90;;;8.00;99.90;;;;;;4997423;28;91066;-36
2022/03/26 07:19:51;;;;;;;134.65;86.03;;;8.20;99.90;;;;;;4996229;28;89727;-35
2022/03/26 07:22:17;;;;;;;140.57;88.30;;;8.50;99.90;;;;;;4997095;28;89469;-35
2022/03/26 07:24:43;;;;;;;137.73;90.90;;;8.60;99.90;;;;;;4997004;28;89798;-33
2022/03/26 07:27:09;;;;;;;136.88;88.38;;;8.80;99.90;;;;;;4996087;28;89294;-34
2022/03/26 07:29:38;;;;;;;131.10;81.07;;;9.00;99.90;;;;;;4996888;28;89611;-39
2022/03/26 07:32:05;;;;;;;127.90;84.07;;;9.30;99.90;;;;;;4996399;28;90477;-33
2022/03/26 07:34:31;;;;;;;131.55;83.22;;;9.50;99.90;;;;;;4997019;28;89667;-33
2022/03/26 07:36:56;;;;;;;141.90;86.20;;;9.70;99.90;;;;;;4995775;28;89919;-38
2022/03/26 07:39:22;;;;;;;133.02;83.57;;;9.90;99.90;;;;;;4996202;28;90806;-34
2022/03/26 07:41:48;;;;;;;132.88;85.28;;;10.20;99.90;;;;;;4995826;28;90448;-33
2022/03/26 07:44:13;;;;;;;123.72;82.43;;;10.40;99.90;;;;;;4996929;28;89336;-37
2022/03/26 07:46:39;;;;;;;127.13;80.68;;;10.80;99.90;;;;;;4995998;28;90478;-33
2022/03/26 07:49:05;;;;;;;115.03;76.32;;;11.10;99.90;;;;;;4996367;28;89708;-38
2022/03/26 07:51:31;;;;;;;135.75;79.35;;;11.30;99.90;;;;;;4996000;28;89675;-38
2022/03/26 07:53:56;;;;;;;122.32;78.50;;;11.60;99.90;;;;;;4996369;28;88786;-33
2022/03/26 07:56:22;;;;;;;110.70;69.00;;;11.60;99.90;;;;;;4996868;28;90103;-35
2022/03/26 07:58:49;;;;;;;106.15;70.15;;;11.80;99.90;;;;;;4995791;28;89889;-36
2022/03/26 08:01:15;;;;;;;102.93;66.40;;;11.80;99.90;;;;;;4996429;28;89951;-33
2022/03/26 08:03:40;;;;;;;107.13;67.35;;;12.00;99.90;;;;;;4996083;28;88616;-35
2022/03/26 08:06:06;;;;;;;99.10;65.28;;;12.20;99.90;;;;;;4996203;28;90188;-33
2022/03/26 08:08:32;;;;;;;97.72;60.20;;;12.50;99.90;;;;;;4996736;28;88625;-35
2022/03/26 08:10:58;;;;;;;85.53;58.40;;;12.60;99.90;;;;;;4995684;28;89895;-35
2022/03/26 08:13:23;;;;;;;93.35;56.10;;;12.70;99.90;;;;;;4996008;28;88913;-36
2022/03/26 08:15:49;;;;;;;90.40;57.28;;;12.80;99.90;;;;;;4995344;28;91194;-37
2022/03/26 08:18:16;;;;;;;83.75;56.70;;;12.80;99.90;;;;;;4996056;28;89613;-35
2022/03/26 08:20:43;;;;;;;87.20;55.72;;;13.00;99.90;;;;;;4996542;28;90499;-35
2022/03/26 08:23:08;;;;;;;81.47;52.90;;;13.40;99.90;;;;;;4996705;28;89055;-37
2022/03/26 08:28:18;;;;;;;83.45;54.13;;;13.90;99.90;;;;;;4996111;28;90759;-34
2022/03/26 08:30:44;;;;;;;77.07;53.45;;;14.10;99.90;;;;;;4995837;28;90352;-36
2022/03/26 08:33:09;;;;;;;78.50;54.17;;;14.20;99.90;;;;;;4996942;28;89649;-37
2022/03/26 08:35:39;;;;;;;75.70;51.78;;;14.20;99.90;;;;;;4996012;28;90343;-35
2022/03/26 08:38:05;;;;;;;79.65;53.38;;;14.40;99.90;;;;;;4995572;28;89608;-35
2022/03/26 08:40:32;;;;;;;65.93;43.20;;;14.70;98.10;;;;;;4980523;28;88532;-34
2022/03/26 08:42:59;;;;;;;70.38;46.05;;;14.40;90.20;;;;;;4976082;28;88758;-38
2022/03/26 08:45:26;;;;;;;66.85;43.03;;;14.60;91.30;;;;;;4991380;28;90560;-37
2022/03/26 08:47:51;;;;;;;71.88;45.38;;;14.80;93.40;;;;;;4998782;28;90375;-36
2022/03/26 08:50:17;;;;;;;69.57;41.38;;;14.90;89.20;;;;;;4999042;28;90469;-36
2022/03/26 08:52:43;;;;;;;60.22;39.50;;;15.10;82.80;;;;;;4998192;28;89276;-38
2022/03/26 08:55:09;;;;;;;64.07;40.65;;;14.80;66.70;;;;;;4999137;28;91270;-35
2022/03/26 08:57:34;;;;;;;64.43;42.00;;;15.00;66.70;;;;;;4998992;28;89917;-39
2022/03/26 09:00:00;;;;;;;66.25;39.42;;;15.30;91.30;;;;;;4998250;28;89696;-39
2022/03/26 09:02:26;;;;;;;65.75;35.22;;;15.30;84.70;;;;;;4999346;28;89041;-35
2022/03/26 09:04:52;;;;;;;43.58;28.52;;;15.40;72.80;;;;;;4997435;28;90275;-37
2022/03/26 09:07:18;;;;;;;50.78;29.20;;;15.50;72.30;;;;;;4998982;28;89448;-37
2022/03/26 09:09:43;;;;;;;50.30;32.63;;;15.80;69.60;;;;;;4997982;28;88716;-35
2022/03/26 09:12:09;;;;;;;47.17;31.08;;;16.00;73.30;;;;;;4999252;28;90126;-34
2022/03/26 09:14:35;;;;;;;54.55;34.20;;;16.20;80.60;;;;;;4998690;28;90187;-36
2022/03/26 09:17:00;;;;;;;46.75;30.85;;;16.20;67.70;;;;;;4992243;28;89956;-35
2022/03/26 09:19:26;;;;;;;49.70;32.10;;;16.40;67.60;;;;;;4977922;28;90373;-37
2022/03/26 09:21:52;;;;;;;41.05;28.95;;;16.30;67.50;;;;;;4978540;28;90225;-35
2022/03/26 09:24:17;;;;;;;44.85;27.38;;;16.60;69.70;;;;;;4978747;28;89108;-38
2022/03/26 09:26:43;;;;;;;34.75;25.92;;;16.40;68.70;;;;;;4978104;28;89639;-35
2022/03/26 09:29:09;;;;;;;37.75;28.02;;;16.30;71.10;;;;;;4978080;28;90357;-39
2022/03/26 09:31:35;;;;;;;48.25;28.80;;;16.90;79.40;;;;;;4978521;28;88972;-38
2022/03/26 09:34:01;;;;;;;35.22;27.65;;;16.50;74.50;;;;;;4978650;28;90566;-36
2022/03/26 09:36:26;;;;;;;41.28;29.05;;;16.40;72.20;;;;;;4978659;28;91339;-35
2022/03/26 09:38:52;;;;;;;47.13;29.85;;;16.60;80.40;;;;;;4978389;28;89529;-34
2022/03/26 09:41:22;;;;;;;40.35;29.13;;;17.10;91.80;;;;;;4977211;28;89820;-39
2022/03/26 09:43:49;;;;;;;41.03;28.77;;;17.10;78.40;;;;;;4977856;28;90595;-36
2022/03/26 09:46:15;;;;;;;41.45;31.02;;;16.70;76.60;;;;;;4978738;28;89859;-37
2022/03/26 09:48:41;;;;;;;41.70;32.15;;;17.10;81.50;;;;;;4978010;28;90392;-34
2022/03/26 09:51:08;;;;;;;42.60;30.10;;;17.40;79.70;;;;;;4978561;28;89725;-35
2022/03/26 09:53:34;;;;;;;39.28;29.27;;;17.20;81.60;;;;;;4978457;28;90256;-39
2022/03/26 09:56:00;;;;;;;36.95;25.77;;;17.40;81.50;;;;;;4976174;28;90355;-36
2022/03/26 09:58:26;;;;;;;26.73;21.50;;;17.30;85.30;;;;;;4978354;28;90366;-36
2022/03/26 10:00:55;;;;;;;24.33;20.15;;;17.00;92.10;;;;;;4959688;28;88224;-34
2022/03/26 10:03:21;;;;;;;27.65;18.92;;;17.00;93.60;;;;;;4977856;28;89351;-35
2022/03/26 10:05:46;;;;;;;18.23;14.52;;;17.20;94.20;;;;;;4976814;28;91606;-35
2022/03/26 10:08:23;;;;;;;18.85;12.43;;;17.40;84.00;;;;;;4977953;28;90357;-38
2022/03/26 10:10:50;;;;;;;22.48;18.67;;;17.50;73.90;;;;;;4977004;28;88466;-35
2022/03/26 10:13:40;;;;;;;21.95;17.08;;;17.40;81.20;;;;;;4977573;28;90694;-33
2022/03/26 10:16:12;;;;;;;21.80;15.18;;;17.90;86.10;;;;;;4977800;28;89863;-36
2022/03/26 10:18:47;;;;;;;20.25;15.52;;;17.50;67.30;;;;;;4977418;28;90924;-36
2022/03/26 10:21:18;;;;;;;16.45;13.55;;;17.60;68.00;;;;;;4977756;28;88847;-35
2022/03/26 10:23:46;;;;;;;24.42;16.40;;;17.80;70.50;;;;;;4977545;28;90147;-34
2022/03/26 10:26:15;;;;;;;23.10;17.27;;;17.60;73.50;;;;;;4977142;28;89811;-38
2022/03/26 10:28:41;;;;;;;18.65;12.95;;;17.60;69.80;;;;;;4977666;28;89542;-37
2022/03/26 10:34:11;;;;;;;28.65;16.85;;;17.80;67.40;;;;;;4978028;28;90177;-36
2022/03/26 10:36:38;;;;;;;25.25;14.93;;;17.80;72.60;;;;;;4977258;28;89756;-35
2022/03/26 10:39:05;;;;;;;20.95;15.27;;;18.00;86.10;;;;;;4977224;28;89934;-36
2022/03/26 10:41:33;;;;;;;23.15;17.63;;;17.70;69.70;;;;;;4977525;28;90116;-36
2022/03/26 10:44:07;;;;;;;22.55;17.17;;;17.60;68.60;;;;;;4977829;28;90011;-36
2022/03/26 10:46:41;;;;;;;33.58;18.02;;;17.20;69.50;;;;;;4977173;28;89934;-35
2022/03/26 10:49:07;;;;;;;20.27;17.05;;;17.30;78.90;;;;;;4977248;28;89698;-36
2022/03/26 10:51:38;;;;;;;26.98;17.52;;;17.70;69.20;;;;;;4977208;28;88401;-35
2022/03/26 10:54:13;;;;;;;28.90;16.98;;;18.10;72.90;;;;;;4977531;28;90120;-34
2022/03/26 10:56:40;;;;;;;17.17;12.48;;;17.50;65.10;;;;;;4976812;28;90728;-34
2022/03/26 10:59:06;;;;;;;17.67;13.90;;;17.30;70.40;;;;;;4977198;28;91439;-37
2022/03/26 11:01:32;;;;;;;20.48;14.30;;;17.50;68.80;;;;;;4977452;28;88594;-38
2022/03/26 11:03:57;;;;;;;21.02;13.55;;;18.00;71.20;;;;;;4977129;28;90246;-37
2022/03/26 11:06:27;;;;;;;19.63;14.05;;;18.00;68.20;;;;;;4975969;28;96426;-37
2022/03/26 11:08:59;;;;;;;17.58;13.02;;;18.40;66.10;;;;;;4977190;28;90051;-37
2022/03/26 11:11:27;;;;;;;18.30;13.90;;;18.30;65.60;;;;;;4976750;28;89261;-37
2022/03/26 11:13:55;;;;;;;23.83;16.92;;;18.20;72.30;;;;;;4977164;28;90614;-35
2022/03/26 11:16:24;;;;;;;18.92;17.02;;;18.30;68.80;;;;;;4977875;28;89469;-35
2022/03/26 11:19:46;;;;;;;21.50;16.45;;;18.00;67.80;;;;;;4976595;28;89649;-36
2022/03/26 11:22:14;;;;;;;22.27;14.80;;;18.00;67.60;;;;;;4894983;28;89628;-35
2022/03/26 11:24:58;;;;;;;;;;;17.60;69.40;;;;;;4896389;28;90337;-38
2022/03/26 11:27:53;;;;;;;22.50;16.08;;;18.00;72.80;;;;;;4945361;28;90090;-38
2022/03/26 11:30:22;;;;;;;23.35;16.88;;;18.10;79.60;;;;;;4904438;28;90126;-35
2022/03/26 11:32:51;;;;;;;20.17;16.20;;;17.70;71.40;;;;;;4977436;28;89049;-35
2022/03/26 11:35:18;;;;;;;23.10;16.48;;;17.50;75.50;;;;;;4977383;28;90960;-34
2022/03/26 11:37:58;;;;;;;17.88;14.07;;;17.70;75.10;;;;;;4976296;28;89953;-34
2022/03/26 11:40:45;;;;;;;20.58;14.73;;;18.20;72.40;;;;;;4976192;28;89470;-35
2022/03/26 11:43:11;;;;;;;20.65;14.27;;;18.00;72.90;;;;;;4959376;28;89695;-40
2022/03/26 11:51:26;;;;;;;20.15;13.90;;;18.00;69.40;;;;;;4976907;28;90546;-36
2022/03/26 11:54:06;;;;;;;17.92;15.38;;;17.80;76.10;;;;;;4976248;28;87667;-35
2022/03/26 11:56:33;;;;;;;15.02;11.80;;;17.80;70.80;;;;;;4976512;28;90097;-38
2022/03/26 11:59:17;;;;;;;18.90;12.52;;;17.80;78.00;;;;;;4975856;28;90679;-34
2022/03/26 12:01:46;;;;;;;14.48;11.15;;;18.20;76.30;;;;;;4976505;28;89175;-35
2022/03/26 12:04:14;;;;;;;13.18;11.52;;;18.50;73.00;;;;;;4976835;28;87527;-37
2022/03/26 12:06:42;;;;;;;22.80;13.25;;;18.50;69.00;;;;;;4975788;28;90290;-34
2022/03/26 12:09:10;;;;;;;13.25;11.48;;;18.60;69.60;;;;;;4976410;28;90047;-36
2022/03/26 12:11:36;;;;;;;16.13;10.93;;;18.20;67.70;;;;;;4976237;28;89307;-37
2022/03/26 12:14:09;;;;;;;18.80;12.48;;;18.40;71.40;;;;;;4976143;28;90301;-38
2022/03/26 12:16:50;;;;;;;15.88;11.50;;;17.70;67.70;;;;;;4975847;28;90973;-36
2022/03/26 12:19:35;;;;;;;13.75;11.70;;;18.00;71.30;;;;;;5011201;22;89674;-38
2022/03/26 12:22:26;;;;;;;14.10;9.52;;;17.80;70.40;;;;;;4979197;28;90347;-33
2022/03/26 12:24:53;;;;;;;15.18;9.18;;;18.20;70.80;;;;;;4980583;28;88579;-38
2022/03/26 12:27:20;;;;;;;10.05;9.02;;;18.00;71.30;;;;;;4980150;28;90331;-35
2022/03/26 12:29:45;;;;;;;13.75;10.25;;;18.00;72.00;;;;;;4979980;28;89689;-36
2022/03/26 12:32:12;;;;;;;12.73;10.48;;;18.00;72.10;;;;;;4980015;28;88863;-39
2022/03/26 12:34:55;;;;;;;11.48;9.90;;;17.90;71.20;;;;;;4979599;28;88579;-37
2022/03/26 12:37:22;;;;;;;14.23;9.32;;;18.10;70.40;;;;;;4980278;28;90513;-39
2022/03/26 12:39:48;;;;;;;16.98;8.75;;;17.40;75.30;;;;;;4979407;28;91759;-36